createdAt,value
2019-03-23T00:00:43.300Z,14.13
2019-03-23T00:01:51.177Z,14.35
2019-03-23T00:02:55.787Z,13.50
2019-03-23T00:04:00.424Z,14.07
2019-03-23T00:05:05.654Z,15.00
2019-03-23T00:06:10.291Z,13.10
2019-03-23T00:07:14.902Z,15.60
2019-03-23T00:08:19.534Z,16.02
2019-03-23T00:09:24.153Z,14.55
2019-03-23T00:10:28.787Z,15.95
2019-03-23T00:11:33.434Z,17.20
2019-03-23T00:12:38.119Z,16.90
2019-03-23T00:13:42.729Z,17.90
2019-03-23T00:14:47.334Z,18.05
2019-03-23T00:15:52.007Z,20.57
2019-03-23T00:16:56.591Z,18.57
2019-03-23T00:18:01.198Z,16.32
2019-03-23T00:19:05.810Z,24.23
2019-03-23T00:20:10.470Z,20.48
2019-03-23T00:21:15.484Z,19.07
2019-03-23T00:22:20.128Z,18.23
2019-03-23T00:23:24.754Z,20.48
2019-03-23T00:24:29.379Z,23.20
2019-03-23T00:25:34.018Z,24.37
2019-03-23T00:26:38.647Z,23.85
2019-03-23T00:27:43.570Z,22.85
2019-03-23T00:28:48.183Z,23.52
2019-03-23T00:29:52.812Z,23.50
2019-03-23T00:30:57.433Z,26.50
2019-03-23T00:32:02.039Z,25.95
2019-03-23T00:33:06.639Z,25.30
2019-03-23T00:34:11.256Z,24.65
2019-03-23T00:35:15.920Z,21.42
2019-03-23T00:36:20.543Z,26.90
2019-03-23T00:37:25.194Z,30.25
2019-03-23T00:38:29.814Z,29.37
2019-03-23T00:39:34.430Z,30.25
2019-03-23T00:40:39.167Z,27.87
2019-03-23T00:41:43.820Z,29.60
2019-03-23T00:42:48.908Z,32.40
2019-03-23T00:43:53.582Z,26.55
2019-03-23T00:44:58.330Z,23.30
2019-03-23T00:46:03.012Z,27.65
2019-03-23T00:47:07.627Z,29.50
2019-03-23T00:48:12.241Z,31.17
2019-03-23T00:49:16.847Z,29.10
2019-03-23T00:50:21.482Z,26.02
2019-03-23T00:51:26.435Z,27.20
2019-03-23T00:52:31.050Z,29.32
2019-03-23T00:53:35.663Z,29.37
2019-03-23T00:54:40.310Z,30.50
2019-03-23T00:55:44.959Z,28.05
2019-03-23T00:56:49.565Z,28.10
2019-03-23T00:57:54.188Z,31.23
2019-03-23T00:58:58.799Z,31.10
2019-03-23T01:00:03.435Z,30.85
2019-03-23T01:01:08.063Z,32.00
2019-03-23T01:02:12.695Z,35.03
2019-03-23T01:03:17.622Z,33.20
2019-03-23T01:04:22.637Z,31.75
2019-03-23T01:05:27.271Z,32.95
2019-03-23T01:06:31.879Z,32.08
2019-03-23T01:07:36.788Z,29.65
2019-03-23T01:08:41.427Z,33.10
2019-03-23T01:09:46.102Z,32.17
2019-03-23T01:10:51.043Z,29.50
2019-03-23T01:11:55.648Z,27.45
2019-03-23T01:13:00.684Z,29.12
2019-03-23T01:14:05.339Z,27.77
2019-03-23T01:15:10.276Z,28.23
2019-03-23T01:16:14.875Z,31.48
2019-03-23T01:17:19.474Z,30.65
2019-03-23T01:18:24.091Z,33.15
2019-03-23T01:19:28.791Z,31.12
2019-03-23T01:20:33.415Z,30.82
2019-03-23T01:21:38.030Z,30.40
2019-03-23T01:22:42.625Z,31.93
2019-03-23T01:23:47.240Z,30.10
2019-03-23T01:24:52.963Z,32.35
2019-03-23T01:25:57.699Z,33.98
2019-03-23T01:27:02.466Z,29.60
2019-03-23T01:28:07.145Z,33.58
2019-03-23T01:29:11.805Z,34.30
2019-03-23T01:30:16.512Z,30.37
2019-03-23T01:31:21.128Z,34.88
2019-03-23T01:32:26.103Z,30.45
2019-03-23T01:33:30.724Z,30.25
2019-03-23T01:34:35.341Z,32.50
2019-03-23T01:35:39.978Z,28.45
2019-03-23T01:36:44.634Z,31.70
2019-03-23T01:37:49.258Z,35.28
2019-03-23T01:38:54.966Z,31.35
2019-03-23T01:39:59.612Z,34.92
2019-03-23T01:41:04.276Z,32.48
2019-03-23T01:42:08.899Z,33.70
2019-03-23T01:43:13.498Z,33.33
2019-03-23T01:44:18.104Z,35.00
2019-03-23T01:45:22.751Z,35.58
2019-03-23T01:46:27.378Z,33.10
2019-03-23T01:47:32.012Z,32.70
2019-03-23T01:48:36.620Z,36.08
2019-03-23T01:49:41.264Z,38.80
2019-03-23T01:50:45.891Z,39.35
2019-03-23T01:51:50.579Z,38.30
2019-03-23T01:52:55.183Z,35.70
2019-03-23T01:53:59.786Z,40.05
2019-03-23T01:55:04.394Z,36.83
2019-03-23T01:56:10.621Z,34.27
2019-03-23T01:57:16.575Z,42.40
2019-03-23T01:58:21.210Z,38.78
2019-03-23T01:59:26.229Z,40.55
2019-03-23T02:00:30.870Z,39.27
2019-03-23T02:01:35.513Z,40.55
2019-03-23T02:02:40.138Z,41.55
2019-03-23T02:03:44.773Z,40.85
2019-03-23T02:04:49.387Z,38.30
2019-03-23T02:05:54.090Z,39.65
2019-03-23T02:06:58.695Z,46.65
2019-03-23T02:08:03.329Z,40.48
2019-03-23T02:09:08.623Z,41.95
2019-03-23T02:10:13.487Z,43.98
2019-03-23T02:11:18.136Z,42.95
2019-03-23T02:12:22.754Z,45.30
2019-03-23T02:13:27.444Z,45.15
2019-03-23T02:14:32.059Z,43.33
2019-03-23T02:15:36.693Z,45.73
2019-03-23T02:16:41.339Z,41.20
2019-03-23T02:17:45.953Z,45.83
2019-03-23T02:18:50.580Z,44.42
2019-03-23T02:19:55.398Z,43.95
2019-03-23T02:21:00.031Z,44.80
2019-03-23T02:22:04.731Z,43.90
2019-03-23T02:23:09.443Z,45.92
2019-03-23T02:24:14.093Z,40.55
2019-03-23T02:25:18.788Z,47.40
2019-03-23T02:26:23.935Z,40.38
2019-03-23T02:27:28.543Z,44.08
2019-03-23T02:28:33.166Z,53.28
2019-03-23T02:29:37.850Z,47.27
2019-03-23T02:30:42.523Z,57.55
2019-03-23T02:31:47.123Z,53.58
2019-03-23T02:32:51.725Z,56.85
2019-03-23T02:33:56.340Z,45.30
2019-03-23T02:35:00.980Z,53.17
2019-03-23T02:36:05.644Z,50.05
2019-03-23T02:37:10.253Z,53.10
2019-03-23T02:38:14.869Z,53.75
2019-03-23T02:39:19.479Z,57.58
2019-03-23T02:40:24.191Z,51.65
2019-03-23T02:41:28.878Z,57.45
2019-03-23T02:42:33.511Z,54.27
2019-03-23T02:43:38.151Z,55.48
2019-03-23T02:44:42.783Z,60.17
2019-03-23T02:45:47.487Z,57.25
2019-03-23T02:46:52.125Z,54.65
2019-03-23T02:47:56.832Z,59.42
2019-03-23T02:49:01.460Z,66.53
2019-03-23T02:50:06.530Z,61.65
2019-03-23T02:51:11.167Z,51.88
2019-03-23T02:52:15.785Z,67.55
2019-03-23T02:53:20.411Z,59.60
2019-03-23T02:54:25.142Z,65.00
2019-03-23T02:55:30.160Z,57.05
2019-03-23T02:56:34.818Z,52.58
2019-03-23T02:57:39.499Z,69.35
2019-03-23T02:58:44.121Z,79.95
2019-03-23T02:59:48.735Z,76.28
2019-03-23T03:00:53.377Z,70.92
2019-03-23T03:01:58.098Z,70.35
2019-03-23T03:03:02.708Z,73.60
2019-03-23T03:04:07.345Z,78.37
2019-03-23T03:05:12.022Z,81.78
2019-03-23T03:06:16.692Z,80.60
2019-03-23T03:07:21.423Z,72.90
2019-03-23T03:08:26.053Z,64.92
2019-03-23T03:09:30.687Z,84.92
2019-03-23T03:10:41.897Z,72.20
2019-03-23T03:11:46.603Z,78.35
2019-03-23T03:12:51.242Z,82.20
2019-03-23T03:13:55.886Z,76.70
2019-03-23T03:15:00.504Z,83.92
2019-03-23T03:16:05.150Z,74.77
2019-03-23T03:17:09.820Z,88.17
2019-03-23T03:18:14.448Z,79.12
2019-03-23T03:19:19.097Z,77.35
2019-03-23T03:20:23.711Z,87.47
2019-03-23T03:21:28.363Z,80.90
2019-03-23T03:22:32.985Z,77.32
2019-03-23T03:23:37.605Z,81.08
2019-03-23T03:24:42.296Z,85.17
2019-03-23T03:25:46.938Z,84.10
2019-03-23T03:26:51.622Z,94.97
2019-03-23T03:27:56.409Z,85.70
2019-03-23T03:29:01.004Z,93.50
2019-03-23T03:30:06.345Z,97.47
2019-03-23T03:31:11.092Z,95.65
2019-03-23T03:32:15.716Z,96.42
2019-03-23T03:33:20.482Z,94.42
2019-03-23T03:34:25.140Z,83.80
2019-03-23T03:35:29.775Z,63.38
2019-03-23T03:36:34.413Z,85.57
2019-03-23T03:37:39.092Z,91.35
2019-03-23T03:38:43.733Z,95.22
2019-03-23T03:39:48.358Z,85.25
2019-03-23T03:40:52.959Z,77.85
2019-03-23T03:41:57.608Z,85.47
2019-03-23T03:43:02.240Z,83.45
2019-03-23T03:44:06.818Z,89.07
2019-03-23T03:45:15.402Z,80.22
2019-03-23T03:46:20.034Z,82.12
2019-03-23T03:47:24.792Z,86.50
2019-03-23T03:48:29.517Z,84.85
2019-03-23T03:49:34.163Z,83.92
2019-03-23T03:50:38.794Z,98.22
2019-03-23T03:51:43.518Z,92.08
2019-03-23T03:52:48.160Z,80.12
2019-03-23T03:53:52.838Z,83.62
2019-03-23T03:54:57.515Z,77.80
2019-03-23T03:56:02.170Z,85.97
2019-03-23T03:57:06.863Z,75.70
2019-03-23T03:58:11.556Z,94.03
2019-03-23T03:59:16.234Z,83.12
2019-03-23T04:00:21.048Z,82.37
2019-03-23T04:01:25.696Z,95.45
2019-03-23T04:02:30.298Z,93.42
2019-03-23T04:03:34.939Z,99.42
2019-03-23T04:04:39.565Z,107.78
2019-03-23T04:05:44.251Z,93.17
2019-03-23T04:06:48.875Z,95.53
2019-03-23T04:07:53.534Z,89.13
2019-03-23T04:08:58.380Z,94.72
2019-03-23T04:10:03.075Z,84.67
2019-03-23T04:11:07.798Z,106.67
2019-03-23T04:12:12.436Z,105.58
2019-03-23T04:13:17.060Z,93.12
2019-03-23T04:14:21.687Z,92.15
2019-03-23T04:15:26.300Z,94.32
2019-03-23T04:16:31.052Z,101.82
2019-03-23T04:17:35.692Z,94.45
2019-03-23T04:18:41.876Z,93.95
2019-03-23T04:19:46.509Z,80.90
2019-03-23T04:20:51.137Z,108.60
2019-03-23T04:21:55.771Z,95.72
2019-03-23T04:23:00.408Z,111.10
2019-03-23T04:24:05.030Z,99.13
2019-03-23T04:25:09.795Z,102.42
2019-03-23T04:26:14.457Z,121.30
2019-03-23T04:27:19.052Z,71.97
2019-03-23T04:28:23.712Z,96.78
2019-03-23T04:29:28.368Z,93.95
2019-03-23T04:30:33.005Z,99.20
2019-03-23T04:31:37.699Z,98.62
2019-03-23T04:32:42.391Z,108.00
2019-03-23T04:33:47.028Z,63.60
2019-03-23T04:34:51.636Z,102.92
2019-03-23T04:35:56.263Z,124.90
2019-03-23T04:37:00.921Z,118.57
2019-03-23T04:38:05.561Z,108.20
2019-03-23T04:39:10.247Z,122.67
2019-03-23T04:40:14.885Z,113.40
2019-03-23T04:41:19.524Z,124.82
2019-03-23T04:42:24.165Z,112.70
2019-03-23T04:43:28.798Z,117.93
2019-03-23T04:44:33.434Z,109.42
2019-03-23T04:45:38.134Z,107.58
2019-03-23T04:46:44.016Z,112.85
2019-03-23T04:47:48.783Z,96.25
2019-03-23T04:48:53.450Z,100.42
2019-03-23T04:49:58.099Z,112.72
2019-03-23T04:51:02.766Z,98.67
2019-03-23T04:52:07.501Z,113.40
2019-03-23T04:53:12.130Z,101.35
2019-03-23T04:54:16.749Z,113.90
2019-03-23T04:55:21.380Z,115.15
2019-03-23T04:56:26.020Z,121.35
2019-03-23T04:57:30.704Z,107.63
2019-03-23T04:58:35.424Z,110.97
2019-03-23T04:59:40.049Z,115.08
2019-03-23T05:00:44.663Z,111.42
2019-03-23T05:01:49.398Z,114.55
2019-03-23T05:02:54.020Z,113.95
2019-03-23T05:03:58.680Z,118.97
2019-03-23T05:05:03.611Z,128.65
2019-03-23T05:06:08.214Z,121.07
2019-03-23T05:07:12.924Z,135.43
2019-03-23T05:08:17.570Z,107.47
2019-03-23T05:09:22.183Z,106.97
2019-03-23T05:10:26.799Z,122.70
2019-03-23T05:11:31.485Z,114.82
2019-03-23T05:12:36.121Z,116.37
2019-03-23T05:13:40.739Z,105.58
2019-03-23T05:14:45.351Z,119.25
2019-03-23T05:15:50.002Z,116.82
2019-03-23T05:16:54.661Z,121.02
2019-03-23T05:17:59.315Z,111.42
2019-03-23T05:19:04.223Z,127.30
2019-03-23T05:20:08.976Z,127.80
2019-03-23T05:21:13.598Z,114.17
2019-03-23T05:22:18.257Z,107.22
2019-03-23T05:23:22.928Z,105.85
2019-03-23T05:24:27.596Z,110.20
2019-03-23T05:25:32.232Z,115.77
2019-03-23T05:26:36.907Z,101.47
2019-03-23T05:27:41.540Z,103.78
2019-03-23T05:28:46.199Z,108.25
2019-03-23T05:29:50.819Z,107.10
2019-03-23T05:30:59.341Z,121.42
2019-03-23T05:32:22.890Z,97.50
2019-03-23T05:33:29.331Z,100.25
2019-03-23T05:34:34.116Z,96.35
2019-03-23T05:35:40.553Z,103.02
2019-03-23T05:36:45.220Z,115.67
2019-03-23T05:37:49.847Z,115.85
2019-03-23T05:38:54.490Z,115.97
2019-03-23T05:39:59.131Z,123.85
2019-03-23T05:41:03.747Z,106.52
2019-03-23T05:42:10.240Z,121.47
2019-03-23T05:43:15.263Z,123.35
2019-03-23T05:44:19.881Z,121.75
2019-03-23T05:45:24.523Z,118.42
2019-03-23T05:46:29.158Z,139.92
2019-03-23T05:47:33.793Z,110.30
2019-03-23T05:48:38.423Z,120.75
2019-03-23T05:49:43.109Z,110.65
2019-03-23T05:50:47.777Z,122.45
2019-03-23T05:51:52.411Z,128.30
2019-03-23T05:52:57.010Z,112.57
2019-03-23T05:54:01.681Z,118.05
2019-03-23T05:55:06.348Z,124.75
2019-03-23T05:56:10.967Z,115.95
2019-03-23T05:57:15.653Z,112.68
2019-03-23T05:58:20.295Z,117.33
2019-03-23T05:59:25.407Z,104.55
2019-03-23T06:00:30.042Z,116.85
2019-03-23T06:01:34.792Z,114.55
2019-03-23T06:02:39.471Z,121.22
2019-03-23T06:03:45.199Z,122.58
2019-03-23T06:04:49.807Z,108.75
2019-03-23T06:05:54.415Z,120.30
2019-03-23T06:06:59.063Z,115.62
2019-03-23T06:08:03.711Z,111.15
2019-03-23T06:09:08.480Z,110.78
2019-03-23T06:10:13.163Z,125.35
2019-03-23T06:11:17.896Z,112.28
2019-03-23T06:12:24.263Z,131.18
2019-03-23T06:13:29.206Z,116.93
2019-03-23T06:14:33.892Z,112.77
2019-03-23T06:15:38.530Z,108.90
2019-03-23T06:16:44.750Z,124.95
2019-03-23T06:17:50.499Z,117.72
2019-03-23T06:18:55.141Z,125.25
2019-03-23T06:19:59.777Z,121.72
2019-03-23T06:21:04.395Z,111.90
2019-03-23T06:22:09.086Z,124.55
2019-03-23T06:23:13.722Z,111.95
2019-03-23T06:24:18.435Z,113.88
2019-03-23T06:25:23.111Z,111.90
2019-03-23T06:26:29.181Z,117.55
2019-03-23T06:27:33.810Z,126.75
2019-03-23T06:28:38.442Z,129.07
2019-03-23T06:29:43.061Z,122.07
2019-03-23T06:30:47.705Z,117.37
2019-03-23T06:31:52.348Z,117.30
2019-03-23T06:32:59.267Z,121.95
2019-03-23T06:34:05.014Z,111.72
2019-03-23T06:35:09.652Z,115.03
2019-03-23T06:36:14.295Z,120.05
2019-03-23T06:37:18.923Z,127.50
2019-03-23T06:38:23.598Z,125.22
2019-03-23T06:39:28.243Z,115.97
2019-03-23T06:40:32.870Z,120.45
2019-03-23T06:41:37.478Z,126.02
2019-03-23T06:42:42.104Z,131.00
2019-03-23T06:43:46.782Z,126.97
2019-03-23T06:44:51.418Z,130.82
2019-03-23T06:45:56.066Z,129.47
2019-03-23T06:47:00.740Z,148.80
2019-03-23T06:48:05.374Z,119.55
2019-03-23T06:49:10.008Z,133.80
2019-03-23T06:50:14.633Z,132.57
2019-03-23T06:51:19.244Z,133.82
2019-03-23T06:52:23.896Z,130.32
2019-03-23T06:53:28.530Z,129.20
2019-03-23T06:54:33.154Z,131.03
2019-03-23T06:55:37.786Z,126.15
2019-03-23T06:56:42.395Z,129.10
2019-03-23T06:57:47.044Z,131.55
2019-03-23T06:58:51.680Z,129.40
2019-03-23T06:59:56.331Z,138.60
2019-03-23T07:01:01.138Z,122.02
2019-03-23T07:02:05.815Z,127.07
2019-03-23T07:03:10.437Z,132.45
2019-03-23T07:04:16.188Z,127.40
2019-03-23T07:05:20.803Z,138.30
2019-03-23T07:06:25.458Z,140.90
2019-03-23T07:07:30.099Z,125.58
2019-03-23T07:08:34.752Z,127.05
2019-03-23T07:09:39.372Z,132.78
2019-03-23T07:10:44.009Z,129.57
2019-03-23T07:11:49.840Z,125.53
2019-03-23T07:12:54.908Z,127.47
2019-03-23T07:14:00.519Z,127.80
2019-03-23T07:15:05.763Z,140.68
2019-03-23T07:16:10.407Z,125.75
2019-03-23T07:17:15.130Z,132.00
2019-03-23T07:18:20.140Z,129.27
2019-03-23T07:19:25.031Z,127.70
2019-03-23T07:20:29.662Z,128.87
2019-03-23T07:21:34.313Z,124.20
2019-03-23T07:22:39.170Z,122.33
2019-03-23T07:23:43.803Z,102.87
2019-03-23T07:24:48.479Z,135.22
2019-03-23T07:25:53.430Z,111.15
2019-03-23T07:26:58.078Z,106.50
2019-03-23T07:28:02.734Z,134.60
2019-03-23T07:29:07.403Z,105.00
2019-03-23T07:30:13.742Z,105.97
2019-03-23T07:31:18.367Z,109.42
2019-03-23T07:32:23.084Z,105.12
2019-03-23T07:33:27.763Z,111.37
2019-03-23T07:34:32.494Z,116.17
2019-03-23T07:35:37.126Z,125.42
2019-03-23T07:36:42.156Z,97.57
2019-03-23T07:37:46.902Z,110.37
2019-03-23T07:38:51.563Z,102.75
2019-03-23T07:39:57.796Z,124.35
2019-03-23T07:41:02.544Z,125.55
2019-03-23T07:42:08.349Z,125.82
2019-03-23T07:43:12.973Z,112.03
2019-03-23T07:44:17.644Z,107.63
2019-03-23T07:45:22.283Z,104.15
2019-03-23T07:46:27.487Z,116.88
2019-03-23T07:47:32.487Z,113.00
2019-03-23T07:48:38.729Z,123.18
2019-03-23T07:49:43.369Z,113.47
2019-03-23T07:50:48.052Z,124.30
2019-03-23T07:51:52.784Z,108.78
2019-03-23T07:52:57.431Z,102.30
2019-03-23T07:54:05.019Z,118.15
2019-03-23T07:55:14.045Z,102.25
2019-03-23T07:56:18.727Z,97.60
2019-03-23T07:57:23.409Z,113.50
2019-03-23T07:58:28.137Z,95.85
2019-03-23T07:59:32.825Z,102.50
2019-03-23T08:00:37.506Z,99.97
2019-03-23T08:01:42.172Z,103.27
2019-03-23T08:02:56.649Z,108.05
2019-03-23T08:04:12.362Z,101.18
2019-03-23T08:05:19.221Z,98.05
2019-03-23T08:06:31.224Z,98.27
2019-03-23T08:07:36.278Z,92.88
2019-03-23T08:08:59.837Z,95.72
2019-03-23T08:10:07.967Z,89.15
2019-03-23T08:11:15.464Z,87.05
2019-03-23T08:12:23.488Z,92.80
2019-03-23T08:13:43.102Z,101.78
2019-03-23T08:14:50.427Z,96.12
2019-03-23T08:15:55.115Z,90.87
2019-03-23T08:17:00.979Z,94.95
2019-03-23T08:18:05.681Z,93.90
2019-03-23T08:19:10.316Z,97.80
2019-03-23T08:20:15.010Z,85.65
2019-03-23T08:21:19.652Z,105.70
2019-03-23T08:22:24.357Z,93.50
2019-03-23T08:23:29.017Z,87.40
2019-03-23T08:24:34.850Z,91.60
2019-03-23T08:25:39.592Z,94.80
2019-03-23T08:26:44.272Z,95.72
2019-03-23T08:27:48.959Z,95.97
2019-03-23T08:28:53.661Z,86.85
2019-03-23T08:29:58.326Z,86.78
2019-03-23T08:31:02.967Z,91.63
2019-03-23T08:32:07.631Z,87.15
2019-03-23T08:33:13.170Z,84.83
2019-03-23T08:34:17.799Z,86.53
2019-03-23T08:35:22.446Z,85.12
2019-03-23T08:36:27.171Z,87.25
2019-03-23T08:37:31.908Z,78.35
2019-03-23T08:38:36.600Z,85.47
2019-03-23T08:39:48.436Z,83.50
2019-03-23T08:40:48.753Z,80.32
2019-03-23T08:41:53.527Z,86.32
2019-03-23T08:42:59.775Z,79.80
2019-03-23T08:44:04.463Z,80.80
2019-03-23T08:45:09.091Z,78.07
2019-03-23T08:46:13.758Z,73.33
2019-03-23T08:47:18.417Z,70.42
2019-03-23T08:48:23.129Z,65.92
2019-03-23T08:49:28.673Z,72.42
2019-03-23T08:50:33.564Z,75.55
2019-03-23T08:51:38.571Z,69.62
2019-03-23T08:52:43.380Z,70.78
2019-03-23T08:53:48.132Z,78.12
2019-03-23T08:54:52.768Z,71.55
2019-03-23T08:55:57.758Z,63.98
2019-03-23T08:57:02.790Z,73.92
2019-03-23T08:58:07.515Z,66.30
2019-03-23T08:59:12.147Z,77.03
2019-03-23T09:00:16.775Z,77.67
2019-03-23T09:01:21.433Z,77.60
2019-03-23T09:02:26.208Z,73.97
2019-03-23T09:03:30.827Z,79.27
2019-03-23T09:04:35.463Z,78.05
2019-03-23T09:05:41.189Z,76.05
2019-03-23T09:06:45.870Z,69.17
2019-03-23T09:07:52.532Z,71.67
2019-03-23T09:08:56.839Z,72.47
2019-03-23T09:10:01.459Z,74.12
2019-03-23T09:11:06.303Z,68.12
2019-03-23T09:12:10.999Z,66.77
2019-03-23T09:13:15.651Z,76.22
2019-03-23T09:14:20.269Z,66.72
2019-03-23T09:15:24.903Z,72.70
2019-03-23T09:16:29.558Z,72.22
2019-03-23T09:17:34.203Z,71.45
2019-03-23T09:18:38.857Z,66.07
2019-03-23T09:19:43.474Z,69.75
2019-03-23T09:20:48.170Z,78.28
2019-03-23T09:21:52.788Z,68.20
2019-03-23T09:22:57.425Z,64.97
2019-03-23T09:24:02.068Z,64.65
2019-03-23T09:25:06.923Z,62.20
2019-03-23T09:26:13.616Z,64.40
2019-03-23T09:27:17.983Z,69.72
2019-03-23T09:28:22.616Z,64.05
2019-03-23T09:29:27.240Z,65.90
2019-03-23T09:30:32.994Z,62.23
2019-03-23T09:31:37.611Z,65.55
2019-03-23T09:32:42.264Z,67.50
2019-03-23T09:33:46.884Z,65.10
2019-03-23T09:34:51.525Z,65.40
2019-03-23T09:35:56.165Z,63.73
2019-03-23T09:37:00.771Z,67.78
2019-03-23T09:38:05.814Z,61.90
2019-03-23T09:39:10.434Z,66.62
2019-03-23T09:40:16.630Z,64.82
2019-03-23T09:41:21.267Z,63.48
2019-03-23T09:42:25.891Z,60.35
2019-03-23T09:43:30.659Z,64.22
2019-03-23T09:44:35.344Z,62.45
2019-03-23T09:45:39.971Z,61.53
2019-03-23T09:46:44.595Z,65.05
2019-03-23T09:47:49.316Z,62.20
2019-03-23T09:48:53.983Z,61.53
2019-03-23T09:49:58.628Z,62.55
2019-03-23T09:51:03.282Z,63.85
2019-03-23T09:52:07.900Z,64.75
2019-03-23T09:53:12.597Z,56.73
2019-03-23T09:54:17.305Z,56.92
2019-03-23T09:55:21.916Z,60.60
2019-03-23T09:56:26.650Z,61.05
2019-03-23T09:57:31.313Z,60.65
2019-03-23T09:58:36.028Z,63.48
2019-03-23T09:59:40.997Z,59.63
2019-03-23T10:00:45.637Z,61.13
2019-03-23T10:01:50.336Z,58.78
2019-03-23T10:02:55.002Z,53.17
2019-03-23T10:03:59.732Z,57.95
2019-03-23T10:05:04.802Z,56.58
2019-03-23T10:06:09.425Z,58.90
2019-03-23T10:07:14.152Z,53.78
2019-03-23T10:08:18.850Z,59.10
2019-03-23T10:09:23.518Z,56.00
2019-03-23T10:10:28.147Z,58.08
2019-03-23T10:11:32.805Z,54.55
2019-03-23T10:12:37.414Z,53.83
2019-03-23T10:13:42.075Z,55.60
2019-03-23T10:14:46.690Z,62.33
2019-03-23T10:15:51.298Z,51.45
2019-03-23T10:16:57.500Z,58.30
2019-03-23T10:18:02.119Z,62.58
2019-03-23T10:19:06.782Z,52.85
2019-03-23T10:20:11.735Z,53.13
2019-03-23T10:21:16.347Z,58.40
2019-03-23T10:22:21.045Z,59.45
2019-03-23T10:23:25.749Z,61.50
2019-03-23T10:24:30.444Z,53.50
2019-03-23T10:25:35.101Z,52.83
2019-03-23T10:26:40.844Z,59.50
2019-03-23T10:27:45.523Z,56.85
2019-03-23T10:28:50.506Z,54.13
2019-03-23T10:29:55.126Z,60.28
2019-03-23T10:31:00.139Z,58.83
2019-03-23T10:32:04.762Z,60.80
2019-03-23T10:33:09.413Z,55.48
2019-03-23T10:34:14.031Z,51.42
2019-03-23T10:35:18.675Z,56.98
2019-03-23T10:36:23.353Z,58.25
2019-03-23T10:37:27.996Z,53.70
2019-03-23T10:38:32.705Z,58.08
2019-03-23T10:39:37.352Z,57.58
2019-03-23T10:40:43.012Z,52.05
2019-03-23T10:41:47.774Z,49.33
2019-03-23T10:42:52.486Z,54.10
2019-03-23T10:43:57.182Z,53.02
2019-03-23T10:45:01.997Z,59.18
2019-03-23T10:46:06.651Z,52.98
2019-03-23T10:47:11.366Z,61.75
2019-03-23T10:48:16.007Z,61.98
2019-03-23T10:49:20.671Z,57.70
2019-03-23T10:50:25.781Z,58.08
2019-03-23T10:51:30.592Z,54.85
2019-03-23T10:52:35.379Z,57.58
2019-03-23T10:53:40.040Z,60.25
2019-03-23T10:54:44.687Z,55.25
2019-03-23T10:55:49.352Z,56.08
2019-03-23T10:56:53.966Z,59.27
2019-03-23T10:58:00.148Z,60.40
2019-03-23T10:59:04.795Z,65.80
2019-03-23T11:00:10.899Z,60.28
2019-03-23T11:01:15.543Z,60.23
2019-03-23T11:02:20.134Z,58.73
2019-03-23T11:03:24.809Z,60.75
2019-03-23T11:04:29.514Z,58.52
2019-03-23T11:05:34.172Z,56.13
2019-03-23T11:06:38.798Z,59.15
2019-03-23T11:07:43.483Z,58.78
2019-03-23T11:08:48.125Z,53.08
2019-03-23T11:09:52.883Z,57.03
2019-03-23T11:10:57.536Z,61.73
2019-03-23T11:12:02.176Z,66.37
2019-03-23T11:13:06.801Z,59.20
2019-03-23T11:14:11.488Z,57.67
2019-03-23T11:15:16.242Z,64.47
2019-03-23T11:16:20.879Z,56.30
2019-03-23T11:17:25.886Z,53.73
2019-03-23T11:18:30.542Z,56.13
2019-03-23T11:19:35.207Z,53.25
2019-03-23T11:20:39.846Z,52.23
2019-03-23T11:21:44.535Z,54.65
2019-03-23T11:22:49.196Z,57.55
2019-03-23T11:23:53.855Z,54.63
2019-03-23T11:24:58.483Z,51.92
2019-03-23T11:26:03.126Z,54.90
2019-03-23T11:27:07.811Z,57.67
2019-03-23T11:28:12.451Z,55.48
2019-03-23T11:29:17.213Z,57.30
2019-03-23T11:30:21.892Z,58.83
2019-03-23T11:31:26.510Z,54.05
2019-03-23T11:32:31.260Z,53.40
2019-03-23T11:33:35.904Z,65.42
2019-03-23T11:34:40.571Z,57.78
2019-03-23T11:35:45.303Z,59.90
2019-03-23T11:36:49.939Z,58.92
2019-03-23T11:37:54.625Z,50.78
2019-03-23T11:38:59.501Z,59.50
2019-03-23T11:40:04.609Z,55.70
2019-03-23T11:41:09.251Z,57.23
2019-03-23T11:42:13.874Z,58.23
2019-03-23T11:43:18.513Z,59.73
2019-03-23T11:44:23.134Z,50.95
2019-03-23T11:45:27.757Z,57.62
2019-03-23T11:46:32.374Z,51.73
2019-03-23T11:47:36.989Z,57.40
2019-03-23T11:48:41.726Z,56.55
2019-03-23T11:49:46.384Z,51.23
2019-03-23T11:50:51.029Z,54.30
2019-03-23T11:51:55.642Z,58.28
2019-03-23T11:53:00.254Z,63.25
2019-03-23T11:54:04.876Z,60.70
2019-03-23T11:55:09.631Z,61.65
2019-03-23T11:56:14.312Z,56.20
2019-03-23T11:57:18.932Z,57.80
2019-03-23T11:58:23.552Z,62.53
2019-03-23T11:59:28.486Z,55.90
2019-03-23T12:00:33.100Z,51.30
2019-03-23T12:01:37.772Z,56.77
2019-03-23T12:02:42.386Z,58.50
2019-03-23T12:03:48.570Z,55.20
2019-03-23T12:04:53.175Z,61.90
2019-03-23T12:05:57.786Z,52.58
2019-03-23T12:07:02.751Z,61.33
2019-03-23T12:08:07.392Z,55.05
2019-03-23T12:09:12.128Z,54.70
2019-03-23T12:10:16.772Z,62.55
2019-03-23T12:11:21.412Z,64.00
2019-03-23T12:12:26.067Z,59.70
2019-03-23T12:13:30.680Z,60.78
2019-03-23T12:14:35.341Z,59.53
2019-03-23T12:15:40.031Z,59.27
2019-03-23T12:16:44.672Z,62.53
2019-03-23T12:17:49.321Z,65.20
2019-03-23T12:18:53.950Z,62.60
2019-03-23T12:19:58.543Z,61.60
2019-03-23T12:21:03.555Z,61.40
2019-03-23T12:22:11.007Z,54.25
2019-03-23T12:23:15.649Z,62.80
2019-03-23T12:24:20.235Z,61.65
2019-03-23T12:25:26.732Z,68.20
2019-03-23T12:26:31.376Z,62.67
2019-03-23T12:27:35.991Z,59.67
2019-03-23T12:28:40.611Z,63.45
2019-03-23T12:29:45.263Z,62.27
2019-03-23T12:30:49.945Z,58.38
2019-03-23T12:31:54.704Z,58.78
2019-03-23T12:32:59.367Z,62.78
2019-03-23T12:34:04.007Z,63.78
2019-03-23T12:35:08.775Z,66.25
2019-03-23T12:36:13.404Z,59.53
2019-03-23T12:37:18.089Z,56.70
2019-03-23T12:38:23.919Z,55.85
2019-03-23T12:39:28.625Z,59.00
2019-03-23T12:40:33.350Z,59.20
2019-03-23T12:41:37.982Z,62.48
2019-03-23T12:42:42.619Z,56.73
2019-03-23T12:43:47.234Z,58.33
2019-03-23T12:44:51.863Z,63.05
2019-03-23T12:45:56.493Z,57.48
2019-03-23T12:47:01.122Z,61.23
2019-03-23T12:48:05.747Z,62.15
2019-03-23T12:49:10.429Z,61.10
2019-03-23T12:50:15.067Z,61.63
2019-03-23T12:51:19.711Z,55.75
2019-03-23T12:52:24.367Z,61.58
2019-03-23T12:53:29.398Z,57.35
2019-03-23T12:54:34.023Z,58.83
2019-03-23T12:55:38.619Z,54.75
2019-03-23T12:56:43.316Z,59.20
2019-03-23T12:57:47.923Z,56.42
2019-03-23T12:58:52.534Z,50.85
2019-03-23T12:59:57.474Z,53.08
2019-03-23T13:01:02.094Z,57.60
2019-03-23T13:02:06.750Z,46.30
2019-03-23T13:03:11.376Z,48.70
2019-03-23T13:04:16.007Z,49.20
2019-03-23T13:05:20.614Z,49.08
2019-03-23T13:06:25.574Z,46.45
2019-03-23T13:07:30.231Z,47.13
2019-03-23T13:08:34.833Z,48.60
2019-03-23T13:09:39.471Z,44.65
2019-03-23T13:10:44.109Z,52.88
2019-03-23T13:11:48.740Z,45.35
2019-03-23T13:12:53.351Z,51.00
2019-03-23T13:13:57.970Z,50.45
2019-03-23T13:15:02.588Z,60.30
2019-03-23T13:16:07.226Z,47.80
2019-03-23T13:17:11.894Z,57.45
2019-03-23T13:18:26.706Z,50.63
2019-03-23T13:19:22.880Z,48.63
2019-03-23T13:20:27.574Z,50.50
2019-03-23T13:21:32.460Z,43.92
2019-03-23T13:22:37.194Z,48.13
2019-03-23T13:23:41.838Z,47.05
2019-03-23T13:24:46.482Z,45.33
2019-03-23T13:25:52.219Z,47.98
2019-03-23T13:26:56.978Z,45.75
2019-03-23T13:28:01.730Z,49.55
2019-03-23T13:29:06.409Z,47.55
2019-03-23T13:30:11.448Z,49.65
2019-03-23T13:31:16.265Z,50.05
2019-03-23T13:32:21.038Z,49.90
2019-03-23T13:33:25.710Z,45.17
2019-03-23T13:34:30.369Z,42.25
2019-03-23T13:35:35.015Z,46.75
2019-03-23T13:36:39.660Z,51.13
2019-03-23T13:37:44.282Z,41.05
2019-03-23T13:38:48.939Z,46.75
2019-03-23T13:39:53.553Z,43.52
2019-03-23T13:40:58.172Z,48.52
2019-03-23T13:42:02.797Z,47.08
2019-03-23T13:43:07.461Z,45.35
2019-03-23T13:44:12.084Z,44.20
2019-03-23T13:45:16.945Z,40.83
2019-03-23T13:46:21.557Z,43.90
2019-03-23T13:47:26.198Z,45.83
2019-03-23T13:48:30.852Z,44.83
2019-03-23T13:49:35.476Z,43.78